createdAt,value
2018-01-23T00:01:27.949Z,82.90
2018-01-23T00:03:55.450Z,82.80
2018-01-23T00:06:22.947Z,83.00
2018-01-23T00:08:50.554Z,83.10
2018-01-23T00:11:18.096Z,83.10
2018-01-23T00:13:46.375Z,83.50
2018-01-23T00:16:14.854Z,83.40
2018-01-23T00:18:43.124Z,83.00
2018-01-23T00:21:11.395Z,82.90
2018-01-23T00:23:38.902Z,82.90
2018-01-23T00:26:06.526Z,82.70
2018-01-23T00:28:34.791Z,82.50
2018-01-23T00:31:02.302Z,82.30
2018-01-23T00:33:29.815Z,82.50
2018-01-23T00:35:58.079Z,82.80
2018-01-23T00:38:25.576Z,82.80
2018-01-23T00:40:53.111Z,82.80
2018-01-23T00:43:21.374Z,82.80
2018-01-23T00:45:48.874Z,82.70
2018-01-23T00:48:16.386Z,82.70
2018-01-23T00:50:43.875Z,82.80
2018-01-23T00:53:11.380Z,82.80
2018-01-23T00:55:38.878Z,82.90
2018-01-23T00:58:07.138Z,82.60
2018-01-23T01:00:34.630Z,82.60
2018-01-23T01:03:02.143Z,82.70
2018-01-23T01:05:29.637Z,83.00
2018-01-23T01:07:57.905Z,83.00
2018-01-23T01:10:26.187Z,83.40
2018-01-23T01:12:54.451Z,83.50
2018-01-23T01:15:22.731Z,84.10
2018-01-23T01:17:51.113Z,84.50
2018-01-23T01:20:19.378Z,84.00
2018-01-23T01:22:46.992Z,84.00
2018-01-23T01:25:14.478Z,83.70
2018-01-23T01:27:41.993Z,84.10
2018-01-23T01:30:09.493Z,84.60
2018-01-23T01:32:37.044Z,84.60
2018-01-23T01:35:04.542Z,85.20
2018-01-23T01:37:32.807Z,85.90
2018-01-23T01:40:00.315Z,85.90
2018-01-23T01:42:27.806Z,86.20
2018-01-23T01:44:55.306Z,86.20
2018-01-23T01:47:22.806Z,85.80
2018-01-23T01:49:50.316Z,86.20
2018-01-23T01:52:18.786Z,87.00
2018-01-23T01:54:47.050Z,87.30
2018-01-23T01:57:14.562Z,87.30
2018-01-23T01:59:42.107Z,87.40
2018-01-23T02:02:09.610Z,86.90
2018-01-23T02:04:37.102Z,87.00
2018-01-23T02:07:05.378Z,88.00
2018-01-23T02:09:33.638Z,87.90
2018-01-23T02:12:01.914Z,87.90
2018-01-23T02:14:29.415Z,87.90
2018-01-23T02:16:56.907Z,88.00
2018-01-23T02:19:24.419Z,87.70
2018-01-23T02:21:51.910Z,87.20
2018-01-23T02:24:19.418Z,87.20
2018-01-23T02:26:47.898Z,87.70
2018-01-23T02:29:16.164Z,87.60
2018-01-23T02:31:43.698Z,87.60
2018-01-23T02:34:11.238Z,87.40
2018-01-23T02:36:38.778Z,87.00
2018-01-23T02:39:06.279Z,87.00
2018-01-23T02:41:33.774Z,86.80
2018-01-23T02:44:02.035Z,87.20
2018-01-23T02:46:29.540Z,87.00
2018-01-23T02:48:57.051Z,87.70
2018-01-23T02:51:24.547Z,88.80
2018-01-23T02:53:52.061Z,88.90
2018-01-23T02:56:19.559Z,88.90
2018-01-23T02:58:47.063Z,89.10
2018-01-23T03:01:14.577Z,89.30
2018-01-23T03:03:42.075Z,89.30
2018-01-23T03:06:09.574Z,89.70
2018-01-23T03:08:37.838Z,90.00
2018-01-23T03:11:06.099Z,90.00
2018-01-23T03:13:33.595Z,90.00
2018-01-23T03:16:01.090Z,90.00
2018-01-23T03:18:28.607Z,90.00
2018-01-23T03:20:56.871Z,90.10
2018-01-23T03:23:25.138Z,90.00
2018-01-23T03:25:52.645Z,90.00
2018-01-23T03:28:20.138Z,90.20
2018-01-23T03:30:47.827Z,90.30
2018-01-23T03:33:16.207Z,90.30
2018-01-23T03:35:44.466Z,90.10
2018-01-23T03:38:11.967Z,90.10
2018-01-23T03:40:39.475Z,90.50
2018-01-23T03:43:06.985Z,90.50
2018-01-23T03:45:34.479Z,90.90
2018-01-23T03:48:01.974Z,90.70
2018-01-23T03:50:30.234Z,90.60
2018-01-23T03:52:57.726Z,90.60
2018-01-23T03:55:25.243Z,90.80
2018-01-23T03:57:53.510Z,90.70
2018-01-23T04:00:20.999Z,90.70
2018-01-23T04:02:49.271Z,90.70
2018-01-23T04:05:17.551Z,90.70
2018-01-23T04:07:45.824Z,90.70
2018-01-23T04:10:14.086Z,90.60
2018-01-23T04:12:41.578Z,90.60
2018-01-23T04:15:09.118Z,90.40
2018-01-23T04:17:37.380Z,90.50
2018-01-23T04:20:04.895Z,90.50
2018-01-23T04:22:32.413Z,90.50
2018-01-23T04:25:00.691Z,90.40
2018-01-23T04:27:28.971Z,90.40
2018-01-23T04:29:57.230Z,90.30
2018-01-23T04:32:24.728Z,90.30
2018-01-23T04:34:52.235Z,90.20
2018-01-23T04:37:19.775Z,90.20
2018-01-23T04:39:47.267Z,90.30
2018-01-23T04:42:15.531Z,90.10
2018-01-23T04:44:43.026Z,90.30
2018-01-23T04:47:10.542Z,90.10
2018-01-23T04:49:38.087Z,90.40
2018-01-23T04:52:05.574Z,90.30
2018-01-23T04:54:33.147Z,90.30
2018-01-23T04:57:01.426Z,90.00
2018-01-23T04:59:29.737Z,90.10
2018-01-23T05:01:57.254Z,90.40
2018-01-23T05:04:25.521Z,89.10
2018-01-23T05:06:53.019Z,89.20
2018-01-23T05:09:20.517Z,89.10
2018-01-23T05:11:48.032Z,88.80
2018-01-23T05:14:15.535Z,88.50
2018-01-23T05:16:43.029Z,89.00
2018-01-23T05:19:11.308Z,88.80
2018-01-23T05:21:39.569Z,88.80
2018-01-23T05:24:07.062Z,88.80
2018-01-23T05:26:34.579Z,88.80
2018-01-23T05:29:02.083Z,88.90
2018-01-23T05:31:29.599Z,88.50
2018-01-23T05:33:57.106Z,88.40
2018-01-23T05:36:24.615Z,88.70
2018-01-23T05:38:52.881Z,89.30
2018-01-23T05:41:20.390Z,88.40
2018-01-23T05:43:47.886Z,88.50
2018-01-23T05:46:15.406Z,88.60
2018-01-23T05:48:42.902Z,88.30
2018-01-23T05:51:10.447Z,88.80
2018-01-23T05:53:37.938Z,89.20
2018-01-23T05:56:05.615Z,89.30
2018-01-23T05:58:33.878Z,89.40
2018-01-23T06:01:02.170Z,89.80
2018-01-23T06:03:30.431Z,89.90
2018-01-23T06:05:57.947Z,89.90
2018-01-23T06:08:25.455Z,90.40
2018-01-23T06:10:53.715Z,90.10
2018-01-23T06:13:21.210Z,90.10
2018-01-23T06:15:48.710Z,89.70
2018-01-23T06:18:16.206Z,89.40
2018-01-23T06:20:44.480Z,90.00
2018-01-23T06:23:12.750Z,90.10
2018-01-23T06:25:41.027Z,90.10
2018-01-23T06:28:09.435Z,90.00
2018-01-23T06:30:36.935Z,90.00
2018-01-23T06:33:04.490Z,90.00
2018-01-23T06:35:31.987Z,90.00
2018-01-23T06:37:59.511Z,90.00
2018-01-23T06:40:27.006Z,89.70
2018-01-23T06:42:55.275Z,90.10
2018-01-23T06:45:22.810Z,90.10
2018-01-23T06:47:50.306Z,90.10
2018-01-23T06:50:19.999Z,90.30
2018-01-23T06:52:47.682Z,90.30
2018-01-23T06:55:15.958Z,90.20
2018-01-23T06:57:44.214Z,90.60
2018-01-23T07:00:18.174Z,90.30
2018-01-23T07:02:45.806Z,90.20
2018-01-23T07:05:14.062Z,90.30
2018-01-23T07:07:41.585Z,90.30
2018-01-23T07:10:09.470Z,90.40
2018-01-23T07:12:36.966Z,90.40
2018-01-23T07:15:05.222Z,90.30
2018-01-23T07:17:32.736Z,90.30
2018-01-23T07:20:00.231Z,90.30
2018-01-23T07:22:27.738Z,90.40
2018-01-23T07:24:55.242Z,90.00
2018-01-23T07:27:22.776Z,89.80
2018-01-23T07:29:50.271Z,89.60
2018-01-23T07:32:18.920Z,89.20
2018-01-23T07:34:46.418Z,89.50
2018-01-23T07:37:14.690Z,90.00
2018-01-23T07:39:42.184Z,90.00
2018-01-23T07:42:16.299Z,90.00
2018-01-23T07:44:43.939Z,90.40
2018-01-23T07:47:12.198Z,90.10
2018-01-23T07:49:39.699Z,90.10
2018-01-23T07:52:17.510Z,90.10
2018-01-23T07:54:45.023Z,90.00
2018-01-23T07:57:13.294Z,88.80
2018-01-23T07:59:40.974Z,88.70
2018-01-23T08:02:09.242Z,87.60
2018-01-23T08:04:37.529Z,88.00
2018-01-23T08:07:05.788Z,88.40
2018-01-23T08:09:34.076Z,88.90
2018-01-23T08:12:02.354Z,88.70
2018-01-23T08:14:30.639Z,88.10
2018-01-23T08:30:09.702Z,86.10
2018-01-23T08:32:37.206Z,86.10
2018-01-23T08:35:05.486Z,86.40
2018-01-23T08:37:33.747Z,86.00
2018-01-23T08:40:02.006Z,86.10
2018-01-23T08:42:35.834Z,85.90
2018-01-23T08:45:04.164Z,86.20
2018-01-23T08:47:31.643Z,86.20
2018-01-23T08:49:59.250Z,86.20
2018-01-23T08:52:28.942Z,86.40
2018-01-23T08:54:57.216Z,86.30
2018-01-23T08:57:25.479Z,86.70
2018-01-23T08:59:53.756Z,86.80
2018-01-23T09:02:26.986Z,86.70
2018-01-23T09:04:54.486Z,86.70
2018-01-23T09:07:21.996Z,86.20
2018-01-23T09:09:49.492Z,86.40
2018-01-23T09:12:17.014Z,86.30
2018-01-23T09:14:44.515Z,86.30
2018-01-23T09:17:12.027Z,86.20
2018-01-23T09:19:39.566Z,85.90
2018-01-23T09:22:14.298Z,85.60
2018-01-23T09:24:42.574Z,85.40
2018-01-23T09:27:10.838Z,85.30
2018-01-23T09:29:38.335Z,85.20
2018-01-23T09:32:06.132Z,85.20
2018-01-23T09:34:33.643Z,84.70
2018-01-23T09:37:01.146Z,84.50
2018-01-23T09:39:28.650Z,83.60
2018-01-23T09:41:56.910Z,83.50
2018-01-23T09:44:24.426Z,83.50
2018-01-23T09:46:51.969Z,84.60
2018-01-23T09:49:19.803Z,83.80
2018-01-23T09:51:48.104Z,83.20
2018-01-23T09:54:15.602Z,83.10
2018-01-23T09:56:43.406Z,83.10
2018-01-23T09:59:11.887Z,83.40
2018-01-23T10:01:40.151Z,83.40
2018-01-23T10:04:20.095Z,83.40
2018-01-23T10:06:47.596Z,83.90
2018-01-23T10:09:15.090Z,83.20
2018-01-23T10:11:42.604Z,83.40
2018-01-23T10:14:10.354Z,83.10
2018-01-23T10:16:38.683Z,84.60
2018-01-23T10:19:06.798Z,84.60
2018-01-23T10:21:35.066Z,83.60
2018-01-23T10:24:02.559Z,83.60
2018-01-23T10:26:30.076Z,83.80
2018-01-23T10:28:57.570Z,83.80
2018-01-23T10:31:25.126Z,83.80
2018-01-23T10:33:52.644Z,84.30
2018-01-23T10:36:21.544Z,84.30
2018-01-23T10:38:49.034Z,84.00
2018-01-23T10:41:16.945Z,84.20
2018-01-23T10:43:44.450Z,83.40
2018-01-23T10:46:12.718Z,83.90
2018-01-23T10:48:42.111Z,83.90
2018-01-23T10:51:09.622Z,83.90
2018-01-23T10:53:37.114Z,82.70
2018-01-23T10:56:13.410Z,82.80
2018-01-23T10:58:41.666Z,83.40
2018-01-23T11:01:09.207Z,83.20
2018-01-23T11:03:36.703Z,82.60
2018-01-23T11:06:10.690Z,83.10
2018-01-23T11:08:38.234Z,83.10
2018-01-23T11:11:05.735Z,83.00
2018-01-23T11:13:33.992Z,83.70
2018-01-23T11:16:01.503Z,83.80
2018-01-23T11:18:30.043Z,83.70
2018-01-23T11:20:58.759Z,84.10
2018-01-23T11:23:26.267Z,84.10
2018-01-23T11:25:53.774Z,84.50
2018-01-23T11:28:21.275Z,84.20
2018-01-23T11:30:48.778Z,84.30
2018-01-23T11:33:16.290Z,83.90
2018-01-23T11:35:43.806Z,84.30
2018-01-23T11:38:11.294Z,85.20
2018-01-23T11:40:38.790Z,85.70
2018-01-23T11:43:07.051Z,85.50
2018-01-23T11:45:34.559Z,85.50
2018-01-23T11:48:02.200Z,85.70
2018-01-23T11:50:30.459Z,85.60
2018-01-23T11:52:58.732Z,85.20
2018-01-23T11:55:26.998Z,86.00
2018-01-23T11:57:54.510Z,85.10
2018-01-23T12:00:25.604Z,85.10
2018-01-23T12:02:53.099Z,84.70
2018-01-23T12:05:20.634Z,84.10
2018-01-23T12:07:49.118Z,83.60
2018-01-23T12:10:17.382Z,84.20
2018-01-23T12:12:44.995Z,84.20
2018-01-23T12:15:12.531Z,84.30
2018-01-23T12:17:40.030Z,84.10
2018-01-23T12:20:23.838Z,84.10
2018-01-23T12:22:51.371Z,84.10
2018-01-23T12:25:19.653Z,84.50
2018-01-23T12:27:47.910Z,86.90
2018-01-23T12:30:15.424Z,86.90
2018-01-23T12:32:42.924Z,83.30
2018-01-23T12:35:10.606Z,83.00
2018-01-23T12:37:38.981Z,83.00
2018-01-23T12:40:06.511Z,82.10
2018-01-23T12:42:34.015Z,82.60
2018-01-23T12:45:01.534Z,82.40
2018-01-23T12:47:29.802Z,82.70
2018-01-23T12:49:57.303Z,82.80
2018-01-23T12:52:25.591Z,83.10
2018-01-23T12:54:53.091Z,83.10
2018-01-23T12:57:20.591Z,82.60
2018-01-23T12:59:48.887Z,82.90
2018-01-23T13:02:22.367Z,82.90
2018-01-23T13:04:50.920Z,82.40
2018-01-23T13:07:19.927Z,83.00
2018-01-23T13:09:47.423Z,83.00
2018-01-23T13:12:19.063Z,83.30
2018-01-23T13:14:46.610Z,83.40
2018-01-23T13:17:14.914Z,82.40
2018-01-23T13:19:42.412Z,82.30
2018-01-23T13:22:13.050Z,81.90
2018-01-23T13:24:41.757Z,81.90
2018-01-23T13:27:10.034Z,83.10
2018-01-23T13:29:38.302Z,82.70
2018-01-23T13:32:11.571Z,82.70
2018-01-23T13:34:39.073Z,82.70
2018-01-23T13:37:07.374Z,82.90
2018-01-23T13:39:34.862Z,82.90
2018-01-23T13:42:02.474Z,82.90
2018-01-23T13:44:29.975Z,83.20
2018-01-23T13:46:57.475Z,83.40
2018-01-23T13:49:25.759Z,82.90
2018-01-23T13:51:54.027Z,82.20
2018-01-23T13:54:22.302Z,82.50
2018-01-23T13:56:50.581Z,82.70
2018-01-23T13:59:18.842Z,83.30
2018-01-23T14:01:46.345Z,83.20
2018-01-23T14:04:29.676Z,84.10
2018-01-23T14:06:57.234Z,84.00
2018-01-23T14:09:24.766Z,83.60
2018-01-23T14:11:53.030Z,83.50
2018-01-23T14:14:20.531Z,83.40
2018-01-23T14:16:48.027Z,83.60
2018-01-23T14:19:15.546Z,83.30
2018-01-23T14:21:43.043Z,83.40
2018-01-23T14:24:10.544Z,83.30
2018-01-23T14:26:38.058Z,83.80
2018-01-23T14:29:05.554Z,83.90
2018-01-23T14:31:33.822Z,83.90
2018-01-23T14:34:02.082Z,83.80
2018-01-23T14:36:29.581Z,83.70
2018-01-23T14:38:57.082Z,84.00
2018-01-23T14:41:24.590Z,84.80
2018-01-23T14:43:52.098Z,85.00
2018-01-23T14:46:19.597Z,84.90
2018-01-23T14:48:48.082Z,85.40
2018-01-23T14:51:15.583Z,85.40
2018-01-23T14:53:43.082Z,85.00
2018-01-23T14:56:11.354Z,85.70
2018-01-23T14:58:38.894Z,85.70
2018-01-23T15:01:06.395Z,85.60
2018-01-23T15:03:33.902Z,85.80
2018-01-23T15:06:01.399Z,85.60
2018-01-23T15:08:29.678Z,85.10
2018-01-23T15:10:57.947Z,85.00
2018-01-23T15:13:26.210Z,85.10
2018-01-23T15:15:53.707Z,85.10
2018-01-23T15:18:21.218Z,84.80
2018-01-23T15:20:48.711Z,85.00
2018-01-23T15:23:16.227Z,85.50
2018-01-23T15:25:43.729Z,86.00
2018-01-23T15:28:11.270Z,86.40
2018-01-23T15:30:39.967Z,85.90
2018-01-23T15:33:08.236Z,85.60
2018-01-23T15:35:36.491Z,85.60
2018-01-23T15:38:10.402Z,85.60
2018-01-23T15:40:37.919Z,85.30
2018-01-23T15:43:05.418Z,85.20
2018-01-23T15:45:33.098Z,84.80
2018-01-23T15:48:01.378Z,85.50
2018-01-23T15:50:29.638Z,85.60
2018-01-23T15:52:57.912Z,84.90
2018-01-23T15:55:25.439Z,85.20
2018-01-23T15:57:52.934Z,85.50
2018-01-23T16:00:27.021Z,85.10
2018-01-23T16:02:54.522Z,84.90
2018-01-23T16:05:22.790Z,85.00
2018-01-23T16:07:51.139Z,85.00
2018-01-23T16:10:18.641Z,85.00
2018-01-23T16:12:46.926Z,85.00
2018-01-23T16:15:14.422Z,85.00
2018-01-23T16:17:41.959Z,85.00
2018-01-23T16:20:09.466Z,84.80
2018-01-23T16:22:36.963Z,85.00
2018-01-23T16:25:04.454Z,84.70
2018-01-23T16:27:31.966Z,84.50
2018-01-23T16:29:59.619Z,84.70
2018-01-23T16:32:27.894Z,84.30
2018-01-23T16:34:56.197Z,84.40
2018-01-23T16:37:23.696Z,84.40
2018-01-23T16:39:51.202Z,83.90
2018-01-23T16:42:18.709Z,83.80
2018-01-23T16:44:46.416Z,84.10
2018-01-23T16:47:14.693Z,84.10
2018-01-23T16:49:42.956Z,84.20
2018-01-23T16:52:11.238Z,84.10
2018-01-23T16:54:39.506Z,84.40
2018-01-23T16:57:07.784Z,84.70
2018-01-23T16:59:35.302Z,84.60
2018-01-23T17:02:02.814Z,84.70
2018-01-23T17:04:30.323Z,84.80
2018-01-23T17:06:57.874Z,85.00
2018-01-23T17:09:25.591Z,85.00
2018-01-23T17:11:53.862Z,85.20
2018-01-23T17:14:22.123Z,85.50
2018-01-23T17:16:49.634Z,85.50
2018-01-23T17:19:17.134Z,85.60
2018-01-23T17:21:44.631Z,85.10
2018-01-23T17:24:12.141Z,85.30
2018-01-23T17:26:39.649Z,85.30
2018-01-23T17:29:07.163Z,85.00
2018-01-23T17:31:34.683Z,84.80
2018-01-23T17:34:02.312Z,84.50
2018-01-23T17:36:30.586Z,85.40
2018-01-23T17:38:58.873Z,85.50
2018-01-23T17:41:26.526Z,85.50
2018-01-23T17:43:54.792Z,85.40
2018-01-23T17:46:23.123Z,85.50
2018-01-23T17:48:50.842Z,85.50
2018-01-23T17:51:19.101Z,85.60
2018-01-23T17:53:46.600Z,85.60
2018-01-23T17:56:14.107Z,85.60
2018-01-23T17:58:41.619Z,85.60
2018-01-23T18:01:09.119Z,85.50
2018-01-23T18:03:36.615Z,85.60
2018-01-23T18:06:14.598Z,85.40
2018-01-23T18:08:42.274Z,85.40
2018-01-23T18:11:09.787Z,85.30
2018-01-23T18:13:37.283Z,85.60
2018-01-23T18:16:05.567Z,85.20
2018-01-23T18:18:33.834Z,85.00
2018-01-23T18:21:02.103Z,85.10
2018-01-23T18:23:29.643Z,85.90
2018-01-23T18:25:57.151Z,85.20
2018-01-23T18:28:24.655Z,85.60
2018-01-23T18:30:52.146Z,85.60
2018-01-23T18:33:20.426Z,85.50
2018-01-23T18:35:48.691Z,85.30
2018-01-23T18:38:16.200Z,85.30
2018-01-23T18:40:43.707Z,85.50
2018-01-23T18:43:12.011Z,84.60
2018-01-23T18:45:39.518Z,85.00
2018-01-23T18:48:07.064Z,84.70
2018-01-23T18:50:34.558Z,84.90
2018-01-23T18:53:02.074Z,85.00
2018-01-23T18:55:29.575Z,84.80
2018-01-23T18:57:57.087Z,85.10
2018-01-23T19:00:24.604Z,85.20
2018-01-23T19:02:52.899Z,84.70
2018-01-23T19:05:20.403Z,84.70
2018-01-23T19:07:47.926Z,84.40
2018-01-23T19:10:15.424Z,84.30
2018-01-23T19:12:42.931Z,84.40
2018-01-23T19:15:10.434Z,84.40
2018-01-23T19:17:37.930Z,84.70
2018-01-23T19:20:06.199Z,84.80
2018-01-23T19:22:34.483Z,85.80
2018-01-23T19:25:02.971Z,84.90
2018-01-23T19:27:31.264Z,84.90
2018-01-23T19:29:58.772Z,84.90
2018-01-23T19:32:26.321Z,85.10
2018-01-23T19:34:53.839Z,85.00
2018-01-23T19:37:21.354Z,84.80
2018-01-23T19:39:48.879Z,84.80
2018-01-23T19:42:16.380Z,84.30
2018-01-23T19:44:43.936Z,84.40
2018-01-23T19:47:11.451Z,84.30
2018-01-23T19:49:38.982Z,84.50
2018-01-23T19:52:06.494Z,84.20
2018-01-23T19:54:34.203Z,84.60
2018-01-23T19:57:02.474Z,84.60
2018-01-23T19:59:30.742Z,84.60
2018-01-23T20:01:59.301Z,84.70
2018-01-23T20:04:26.818Z,84.70
2018-01-23T20:06:54.386Z,84.40
2018-01-23T20:09:22.029Z,84.30
2018-01-23T20:11:49.538Z,84.40
2018-01-23T20:14:17.058Z,84.20
2018-01-23T20:16:44.586Z,84.30
2018-01-23T20:19:12.868Z,85.30
2018-01-23T20:21:40.420Z,84.40
2018-01-23T20:24:21.322Z,83.80
2018-01-23T20:26:48.850Z,83.80
2018-01-23T20:29:17.126Z,83.70
2018-01-23T20:31:45.412Z,83.40
2018-01-23T20:34:13.711Z,83.60
2018-01-23T20:36:41.211Z,83.50
2018-01-23T20:39:08.732Z,83.50
2018-01-23T20:41:36.262Z,83.70
2018-01-23T20:44:04.538Z,83.70
2018-01-23T20:46:32.927Z,83.40
2018-01-23T20:49:00.463Z,83.40
2018-01-23T20:51:28.794Z,82.90
2018-01-23T20:53:56.300Z,82.90
2018-01-23T20:56:24.577Z,83.00
2018-01-23T20:58:52.852Z,83.40
2018-01-23T21:01:21.110Z,83.70
2018-01-23T21:03:48.653Z,83.60
2018-01-23T21:06:16.166Z,83.80
2018-01-23T21:08:44.430Z,83.30
2018-01-23T21:11:12.732Z,83.40
2018-01-23T21:13:40.273Z,83.40
2018-01-23T21:16:11.724Z,83.30
2018-01-23T21:18:40.165Z,83.10
2018-01-23T21:21:07.737Z,83.10
2018-01-23T21:23:36.089Z,83.30
2018-01-23T21:26:07.244Z,83.30
2018-01-23T21:28:35.010Z,83.30
2018-01-23T21:31:02.633Z,83.60
2018-01-23T21:33:30.499Z,83.60
2018-01-23T21:35:58.267Z,83.50
2018-01-23T21:43:03.178Z,84.10
2018-01-23T21:45:30.749Z,83.20
2018-01-23T21:47:59.104Z,83.60
2018-01-23T21:50:26.645Z,83.50
2018-01-23T21:52:54.333Z,83.30
2018-01-23T21:55:21.891Z,83.10
2018-01-23T21:57:50.986Z,82.70
2018-01-23T22:00:18.584Z,82.70
2018-01-23T22:02:46.192Z,82.80
2018-01-23T22:05:13.885Z,83.00
2018-01-23T22:07:42.367Z,83.00
2018-01-23T22:10:13.780Z,82.70
2018-01-23T22:12:41.360Z,82.60
2018-01-23T22:15:08.928Z,82.70
2018-01-23T22:17:36.609Z,82.50
2018-01-23T22:20:04.936Z,82.30
2018-01-23T22:22:32.599Z,82.30
2018-01-23T22:25:00.342Z,82.00
2018-01-23T22:27:27.927Z,81.60
2018-01-23T22:29:55.516Z,82.10
2018-01-23T22:32:23.078Z,81.20
2018-01-23T22:34:50.687Z,81.20
2018-01-23T22:37:18.262Z,81.00
2018-01-23T22:39:45.903Z,80.50
2018-01-23T22:42:13.520Z,80.60
2018-01-23T22:44:41.853Z,80.50
2018-01-23T22:47:09.470Z,80.50
2018-01-23T22:49:37.174Z,80.60
2018-01-23T22:52:04.831Z,80.60
2018-01-23T22:54:32.374Z,80.70
2018-01-23T22:57:00.150Z,80.80
2018-01-23T22:59:27.707Z,80.80
2018-01-23T23:01:55.311Z,80.70
2018-01-23T23:04:23.706Z,80.50
2018-01-23T23:06:52.109Z,80.60
2018-01-23T23:09:20.435Z,81.50
2018-01-23T23:11:48.039Z,80.70
2018-01-23T23:14:16.432Z,81.20
2018-01-23T23:16:44.034Z,81.20
2018-01-23T23:19:11.632Z,81.40
2018-01-23T23:21:39.969Z,81.60
2018-01-23T23:24:07.538Z,81.50
2018-01-23T23:26:35.101Z,81.60
2018-01-23T23:29:02.710Z,81.70
2018-01-23T23:31:30.261Z,81.80
2018-01-23T23:33:58.668Z,82.00
2018-01-23T23:36:26.227Z,81.90
2018-01-23T23:38:53.809Z,82.00
2018-01-23T23:41:21.358Z,82.20
2018-01-23T23:43:48.906Z,82.30
2018-01-23T23:46:16.472Z,82.50
2018-01-23T23:48:44.011Z,82.70
2018-01-23T23:51:11.567Z,82.90
2018-01-23T23:53:39.164Z,83.00
2018-01-23T23:56:06.705Z,83.10
2018-01-23T23:58:34.285Z,83.20
